Princeton, MO

8:53 PM CST on February 11, 2016 (GMT -0600)
Trenton | | Change Station
CLOSE
Current Station
Personal Weather Station
Location: Trenton, MO
Elevation: 827 ft
Nearby Weather Stations

Elev 827 ft 40.07 °N, 93.58 °W | Updated 10 minutes ago

Overcast
Overcast
26.4 °F
Feels Like 22 °F
N
3.7
Wind Variable Wind from ESE

Today
High -- | Low -- °F
--% Chance of Precip.
Yesterday
High -- | Low -- °F
Precip. -- in
Pressure 30.27 in
Visibility 10.0 miles
Clouds Overcast 4300 ft
Windchill 22 °F
Dew Point 16 °F
Humidity 64%
Rainfall 0.00 in
Snow Depth Not available.
7:13 AM 5:44 PM
Waxing Crescent, 16% visible
METAR KLWD 120153Z AUTO 11006KT 10SM OVC043 M03/M11 A3021 RMK AO2 SNB37E47 SLP248 P0000 T10331106
Pressure 30.27 in
Visibility 10.0 miles
Clouds Overcast 4300 ft
Windchill 22 °F
Dew Point 16 °F
Humidity 64%
Rainfall 0.00 in
Snow Depth Not available.
7:13 AM 5:44 PM
Waxing Crescent, 16% visible
METAR KLWD 120153Z AUTO 11006KT 10SM OVC043 M03/M11 A3021 RMK AO2 SNB37E47 SLP248 P0000 T10331106

10-Day Weather Forecast

Almanac

Astronomy

Feb. 11, 2016 Rise Set
Actual Time
Civil Twilight
Nautical Twilight
Astronomical Twilight
Moon
Length of Visible Light
Length of Day
Tomorrow will be .
, % of the Moon is Illuminated

Today's Extremes

State Highs State Lows

Community

WunderPhotos

Upload Photos

1,892,226 photos uploaded!

WunderBlog® & News

Nearby

Air Quality

  Air Quality AQ Index Pollutant
Not available.

Snow Depth

Station Depth Elevation

Earthquake Activity

City Distance Mag. Time & Date
Minimum magnitude displayed is 2.5.

Coastal Water Temperatures

Place Temperature

Stations

Nearby Weather Stations

Station Location Temp. Windchill Dew Point Humidity Wind Precip. Elev Updated Type
                   

Watches & Warnings

There are currently no watches in effect.